sensor_id;sensor_type;location;lat;lon;timestamp;P1;durP1;ratioP1;P2;durP2;ratioP2
49223;SDS011;35050;51.316;5.994;2023-06-05T00:01:44;1.05;;;0.90;;
49223;SDS011;35050;51.316;5.994;2023-06-05T00:04:10;1.77;;;1.13;;
49223;SDS011;35050;51.316;5.994;2023-06-05T00:06:35;1.83;;;1.10;;
49223;SDS011;35050;51.316;5.994;2023-06-05T00:09:02;1.60;;;0.90;;
49223;SDS011;35050;51.316;5.994;2023-06-05T00:11:28;1.30;;;1.20;;
49223;SDS011;35050;51.316;5.994;2023-06-05T00:13:54;1.70;;;1.10;;
49223;SDS011;35050;51.316;5.994;2023-06-05T00:16:20;2.08;;;1.02;;
49223;SDS011;35050;51.316;5.994;2023-06-05T00:18:46;2.85;;;0.93;;
49223;SDS011;35050;51.316;5.994;2023-06-05T00:21:12;1.77;;;1.15;;
49223;SDS011;35050;51.316;5.994;2023-06-05T00:23:38;3.00;;;1.67;;
49223;SDS011;35050;51.316;5.994;2023-06-05T00:26:03;6.65;;;1.20;;
49223;SDS011;35050;51.316;5.994;2023-06-05T00:28:29;1.55;;;1.10;;
49223;SDS011;35050;51.316;5.994;2023-06-05T00:30:55;2.13;;;1.17;;
49223;SDS011;35050;51.316;5.994;2023-06-05T00:33:20;1.17;;;0.90;;
49223;SDS011;35050;51.316;5.994;2023-06-05T00:35:46;2.33;;;1.20;;
49223;SDS011;35050;51.316;5.994;2023-06-05T00:38:12;3.38;;;1.40;;
49223;SDS011;35050;51.316;5.994;2023-06-05T00:40:38;1.88;;;1.20;;
49223;SDS011;35050;51.316;5.994;2023-06-05T00:43:03;4.53;;;1.20;;
49223;SDS011;35050;51.316;5.994;2023-06-05T00:45:30;2.55;;;1.10;;
49223;SDS011;35050;51.316;5.994;2023-06-05T00:47:56;1.33;;;1.13;;
49223;SDS011;35050;51.316;5.994;2023-06-05T00:50:22;3.45;;;1.30;;
49223;SDS011;35050;51.316;5.994;2023-06-05T00:52:48;2.45;;;1.27;;
49223;SDS011;35050;51.316;5.994;2023-06-05T00:55:14;1.80;;;1.20;;
49223;SDS011;35050;51.316;5.994;2023-06-05T00:57:40;3.10;;;1.23;;
49223;SDS011;35050;51.316;5.994;2023-06-05T01:00:07;1.75;;;1.40;;
49223;SDS011;35050;51.316;5.994;2023-06-05T01:02:33;4.45;;;1.35;;
49223;SDS011;35050;51.316;5.994;2023-06-05T01:05:02;3.13;;;1.17;;
49223;SDS011;35050;51.316;5.994;2023-06-05T01:07:29;7.63;;;1.52;;
49223;SDS011;35050;51.316;5.994;2023-06-05T01:09:57;3.80;;;1.30;;
49223;SDS011;35050;51.316;5.994;2023-06-05T01:12:36;1.33;;;1.08;;
49223;SDS011;35050;51.316;5.994;2023-06-05T01:15:20;3.13;;;1.30;;
49223;SDS011;35050;51.316;5.994;2023-06-05T01:20:20;3.47;;;1.23;;
49223;SDS011;35050;51.316;5.994;2023-06-05T01:22:48;3.70;;;1.13;;
49223;SDS011;35050;51.316;5.994;2023-06-05T01:25:17;5.75;;;1.40;;
49223;SDS011;35050;51.316;5.994;2023-06-05T01:30:21;2.45;;;1.17;;
49223;SDS011;35050;51.316;5.994;2023-06-05T01:33:17;1.27;;;1.10;;
49223;SDS011;35050;51.316;5.994;2023-06-05T01:35:50;2.88;;;1.23;;
49223;SDS011;35050;51.316;5.994;2023-06-05T01:38:18;3.97;;;1.58;;
49223;SDS011;35050;51.316;5.994;2023-06-05T01:40:45;1.67;;;1.23;;
49223;SDS011;35050;51.316;5.994;2023-06-05T01:43:12;2.35;;;1.30;;
49223;SDS011;35050;51.316;5.994;2023-06-05T01:45:39;2.30;;;1.27;;
49223;SDS011;35050;51.316;5.994;2023-06-05T01:48:08;2.78;;;1.35;;
49223;SDS011;35050;51.316;5.994;2023-06-05T01:50:37;1.92;;;1.40;;
49223;SDS011;35050;51.316;5.994;2023-06-05T01:53:04;2.53;;;1.30;;
49223;SDS011;35050;51.316;5.994;2023-06-05T01:55:30;2.22;;;1.08;;
49223;SDS011;35050;51.316;5.994;2023-06-05T01:57:56;1.70;;;1.40;;
49223;SDS011;35050;51.316;5.994;2023-06-05T02:00:22;1.85;;;1.30;;
49223;SDS011;35050;51.316;5.994;2023-06-05T02:02:48;2.35;;;1.50;;
49223;SDS011;35050;51.316;5.994;2023-06-05T02:05:15;1.98;;;1.40;;
49223;SDS011;35050;51.316;5.994;2023-06-05T02:07:46;3.30;;;2.03;;
49223;SDS011;35050;51.316;5.994;2023-06-05T02:10:14;3.35;;;2.00;;
49223;SDS011;35050;51.316;5.994;2023-06-05T02:12:40;2.70;;;1.60;;
49223;SDS011;35050;51.316;5.994;2023-06-05T02:15:09;1.63;;;1.27;;
49223;SDS011;35050;51.316;5.994;2023-06-05T02:17:38;4.47;;;1.67;;
49223;SDS011;35050;51.316;5.994;2023-06-05T02:20:04;2.90;;;1.60;;
49223;SDS011;35050;51.316;5.994;2023-06-05T02:22:30;2.70;;;1.60;;
49223;SDS011;35050;51.316;5.994;2023-06-05T02:24:56;2.13;;;1.50;;
49223;SDS011;35050;51.316;5.994;2023-06-05T02:27:22;1.95;;;1.38;;
49223;SDS011;35050;51.316;5.994;2023-06-05T02:29:49;1.95;;;1.40;;
49223;SDS011;35050;51.316;5.994;2023-06-05T02:32:15;3.65;;;1.60;;
49223;SDS011;35050;51.316;5.994;2023-06-05T02:34:41;1.42;;;1.30;;
49223;SDS011;35050;51.316;5.994;2023-06-05T02:37:06;2.47;;;1.40;;
49223;SDS011;35050;51.316;5.994;2023-06-05T02:39:33;1.98;;;1.30;;
49223;SDS011;35050;51.316;5.994;2023-06-05T02:41:59;2.53;;;1.48;;
49223;SDS011;35050;51.316;5.994;2023-06-05T02:44:24;1.67;;;1.40;;
49223;SDS011;35050;51.316;5.994;2023-06-05T02:46:51;1.88;;;1.20;;
49223;SDS011;35050;51.316;5.994;2023-06-05T02:49:16;1.65;;;1.23;;
49223;SDS011;35050;51.316;5.994;2023-06-05T02:51:42;1.48;;;1.20;;
49223;SDS011;35050;51.316;5.994;2023-06-05T02:54:07;1.83;;;1.40;;
49223;SDS011;35050;51.316;5.994;2023-06-05T02:56:33;2.08;;;1.38;;
49223;SDS011;35050;51.316;5.994;2023-06-05T02:58:59;2.25;;;1.50;;
49223;SDS011;35050;51.316;5.994;2023-06-05T03:01:27;1.70;;;1.45;;
49223;SDS011;35050;51.316;5.994;2023-06-05T03:03:59;2.30;;;1.60;;
49223;SDS011;35050;51.316;5.994;2023-06-05T03:06:27;1.73;;;1.50;;
49223;SDS011;35050;51.316;5.994;2023-06-05T03:09:00;2.47;;;1.60;;
49223;SDS011;35050;51.316;5.994;2023-06-05T03:11:26;1.80;;;1.40;;
49223;SDS011;35050;51.316;5.994;2023-06-05T03:13:52;2.50;;;1.40;;
49223;SDS011;35050;51.316;5.994;2023-06-05T03:16:18;2.60;;;1.50;;
49223;SDS011;35050;51.316;5.994;2023-06-05T03:18:44;2.03;;;1.58;;
49223;SDS011;35050;51.316;5.994;2023-06-05T03:21:11;1.58;;;1.40;;
49223;SDS011;35050;51.316;5.994;2023-06-05T03:23:36;2.70;;;1.52;;
49223;SDS011;35050;51.316;5.994;2023-06-05T03:26:02;1.58;;;1.48;;
49223;SDS011;35050;51.316;5.994;2023-06-05T03:28:28;3.17;;;1.63;;
49223;SDS011;35050;51.316;5.994;2023-06-05T03:30:58;1.50;;;1.40;;
49223;SDS011;35050;51.316;5.994;2023-06-05T03:33:24;1.50;;;1.40;;
49223;SDS011;35050;51.316;5.994;2023-06-05T03:35:50;2.65;;;1.30;;
49223;SDS011;35050;51.316;5.994;2023-06-05T03:38:17;2.10;;;1.48;;
49223;SDS011;35050;51.316;5.994;2023-06-05T03:40:43;3.40;;;1.52;;
49223;SDS011;35050;51.316;5.994;2023-06-05T03:43:09;1.98;;;1.30;;
49223;SDS011;35050;51.316;5.994;2023-06-05T03:45:35;2.50;;;1.75;;
49223;SDS011;35050;51.316;5.994;2023-06-05T03:48:02;3.00;;;1.55;;
49223;SDS011;35050;51.316;5.994;2023-06-05T03:50:27;1.98;;;1.58;;
49223;SDS011;35050;51.316;5.994;2023-06-05T03:52:54;2.05;;;1.52;;
49223;SDS011;35050;51.316;5.994;2023-06-05T03:55:27;2.50;;;1.67;;
49223;SDS011;35050;51.316;5.994;2023-06-05T03:58:13;2.47;;;1.90;;
49223;SDS011;35050;51.316;5.994;2023-06-05T04:00:43;1.73;;;1.63;;
49223;SDS011;35050;51.316;5.994;2023-06-05T04:03:11;4.47;;;2.00;;
49223;SDS011;35050;51.316;5.994;2023-06-05T04:05:37;2.60;;;2.05;;
49223;SDS011;35050;51.316;5.994;2023-06-05T04:08:04;6.25;;;1.98;;
49223;SDS011;35050;51.316;5.994;2023-06-05T04:10:30;3.25;;;1.40;;
49223;SDS011;35050;51.316;5.994;2023-06-05T04:12:56;1.88;;;1.70;;
49223;SDS011;35050;51.316;5.994;2023-06-05T04:15:22;2.72;;;1.80;;
49223;SDS011;35050;51.316;5.994;2023-06-05T04:17:48;2.03;;;1.52;;
49223;SDS011;35050;51.316;5.994;2023-06-05T04:20:14;3.65;;;1.50;;
49223;SDS011;35050;51.316;5.994;2023-06-05T04:22:43;1.95;;;1.60;;
49223;SDS011;35050;51.316;5.994;2023-06-05T04:25:12;2.13;;;1.90;;
49223;SDS011;35050;51.316;5.994;2023-06-05T04:27:39;2.25;;;1.80;;
49223;SDS011;35050;51.316;5.994;2023-06-05T04:30:06;2.28;;;1.85;;
49223;SDS011;35050;51.316;5.994;2023-06-05T04:32:33;2.38;;;1.95;;
49223;SDS011;35050;51.316;5.994;2023-06-05T04:35:02;3.42;;;1.90;;
49223;SDS011;35050;51.316;5.994;2023-06-05T04:37:31;2.25;;;2.05;;
49223;SDS011;35050;51.316;5.994;2023-06-05T04:39:58;2.75;;;2.22;;
49223;SDS011;35050;51.316;5.994;2023-06-05T04:42:24;3.83;;;2.28;;
49223;SDS011;35050;51.316;5.994;2023-06-05T04:44:56;2.10;;;1.90;;
49223;SDS011;35050;51.316;5.994;2023-06-05T04:47:22;2.78;;;2.10;;
49223;SDS011;35050;51.316;5.994;2023-06-05T04:49:48;3.10;;;1.80;;
49223;SDS011;35050;51.316;5.994;2023-06-05T04:52:17;3.78;;;2.55;;
49223;SDS011;35050;51.316;5.994;2023-06-05T04:54:43;3.25;;;2.10;;
49223;SDS011;35050;51.316;5.994;2023-06-05T04:57:09;2.70;;;2.33;;
49223;SDS011;35050;51.316;5.994;2023-06-05T04:59:35;5.20;;;2.50;;
49223;SDS011;35050;51.316;5.994;2023-06-05T05:02:01;4.15;;;2.60;;
49223;SDS011;35050;51.316;5.994;2023-06-05T05:04:27;2.72;;;2.10;;
49223;SDS011;35050;51.316;5.994;2023-06-05T05:06:54;4.05;;;2.88;;
49223;SDS011;35050;51.316;5.994;2023-06-05T05:09:19;3.35;;;2.17;;
49223;SDS011;35050;51.316;5.994;2023-06-05T05:11:45;3.42;;;2.40;;
49223;SDS011;35050;51.316;5.994;2023-06-05T05:14:11;2.40;;;2.20;;
49223;SDS011;35050;51.316;5.994;2023-06-05T05:16:36;2.28;;;1.77;;
49223;SDS011;35050;51.316;5.994;2023-06-05T05:19:02;2.33;;;2.10;;
49223;SDS011;35050;51.316;5.994;2023-06-05T05:21:28;3.08;;;2.45;;
49223;SDS011;35050;51.316;5.994;2023-06-05T05:23:53;4.68;;;2.15;;
49223;SDS011;35050;51.316;5.994;2023-06-05T05:26:19;3.22;;;2.30;;
49223;SDS011;35050;51.316;5.994;2023-06-05T05:28:45;2.10;;;1.90;;
49223;SDS011;35050;51.316;5.994;2023-06-05T05:31:10;2.75;;;2.38;;
49223;SDS011;35050;51.316;5.994;2023-06-05T05:33:36;2.60;;;2.40;;
49223;SDS011;35050;51.316;5.994;2023-06-05T05:36:02;2.75;;;2.20;;
49223;SDS011;35050;51.316;5.994;2023-06-05T05:38:28;3.95;;;2.53;;
49223;SDS011;35050;51.316;5.994;2023-06-05T05:40:54;3.05;;;2.08;;
49223;SDS011;35050;51.316;5.994;2023-06-05T05:43:19;5.25;;;3.13;;
49223;SDS011;35050;51.316;5.994;2023-06-05T05:45:45;3.03;;;2.60;;
49223;SDS011;35050;51.316;5.994;2023-06-05T05:48:11;3.47;;;2.83;;
49223;SDS011;35050;51.316;5.994;2023-06-05T05:50:36;2.85;;;2.50;;
49223;SDS011;35050;51.316;5.994;2023-06-05T05:53:02;4.25;;;3.15;;
49223;SDS011;35050;51.316;5.994;2023-06-05T05:55:28;4.30;;;2.92;;
49223;SDS011;35050;51.316;5.994;2023-06-05T05:57:54;4.95;;;3.30;;
49223;SDS011;35050;51.316;5.994;2023-06-05T06:00:20;5.10;;;3.35;;
49223;SDS011;35050;51.316;5.994;2023-06-05T06:02:46;3.50;;;2.72;;
49223;SDS011;35050;51.316;5.994;2023-06-05T06:05:12;4.68;;;2.30;;
49223;SDS011;35050;51.316;5.994;2023-06-05T06:07:38;6.97;;;3.40;;
49223;SDS011;35050;51.316;5.994;2023-06-05T06:10:05;4.72;;;2.45;;
49223;SDS011;35050;51.316;5.994;2023-06-05T06:12:32;3.83;;;2.60;;
49223;SDS011;35050;51.316;5.994;2023-06-05T06:14:58;3.45;;;2.50;;
49223;SDS011;35050;51.316;5.994;2023-06-05T06:17:24;3.15;;;2.47;;
49223;SDS011;35050;51.316;5.994;2023-06-05T06:19:49;3.92;;;2.50;;
49223;SDS011;35050;51.316;5.994;2023-06-05T06:22:15;3.58;;;2.88;;
49223;SDS011;35050;51.316;5.994;2023-06-05T06:24:41;6.13;;;3.40;;
49223;SDS011;35050;51.316;5.994;2023-06-05T06:27:08;3.35;;;2.88;;
49223;SDS011;35050;51.316;5.994;2023-06-05T06:29:36;3.80;;;2.92;;
49223;SDS011;35050;51.316;5.994;2023-06-05T06:32:11;3.88;;;3.17;;
49223;SDS011;35050;51.316;5.994;2023-06-05T06:34:36;3.50;;;2.45;;
49223;SDS011;35050;51.316;5.994;2023-06-05T06:37:02;2.40;;;2.20;;
49223;SDS011;35050;51.316;5.994;2023-06-05T06:39:28;2.67;;;2.08;;
49223;SDS011;35050;51.316;5.994;2023-06-05T06:41:54;2.45;;;2.20;;
49223;SDS011;35050;51.316;5.994;2023-06-05T06:44:21;4.45;;;2.60;;
49223;SDS011;35050;51.316;5.994;2023-06-05T06:46:47;4.20;;;2.90;;
49223;SDS011;35050;51.316;5.994;2023-06-05T06:49:12;3.97;;;2.60;;
49223;SDS011;35050;51.316;5.994;2023-06-05T06:51:38;4.25;;;2.70;;
49223;SDS011;35050;51.316;5.994;2023-06-05T06:54:03;2.70;;;2.50;;
49223;SDS011;35050;51.316;5.994;2023-06-05T06:56:29;4.63;;;2.95;;
49223;SDS011;35050;51.316;5.994;2023-06-05T06:58:55;6.65;;;2.50;;
49223;SDS011;35050;51.316;5.994;2023-06-05T07:01:21;3.20;;;2.40;;
49223;SDS011;35050;51.316;5.994;2023-06-05T07:03:47;4.20;;;2.75;;
49223;SDS011;35050;51.316;5.994;2023-06-05T07:06:12;3.15;;;2.60;;
49223;SDS011;35050;51.316;5.994;2023-06-05T07:08:40;4.32;;;3.30;;
49223;SDS011;35050;51.316;5.994;2023-06-05T07:11:05;4.60;;;2.80;;
49223;SDS011;35050;51.316;5.994;2023-06-05T07:13:31;4.82;;;2.92;;
49223;SDS011;35050;51.316;5.994;2023-06-05T07:15:56;4.80;;;2.88;;
49223;SDS011;35050;51.316;5.994;2023-06-05T07:18:22;3.33;;;2.45;;
49223;SDS011;35050;51.316;5.994;2023-06-05T07:20:48;5.68;;;3.20;;
49223;SDS011;35050;51.316;5.994;2023-06-05T07:23:17;3.88;;;3.08;;
49223;SDS011;35050;51.316;5.994;2023-06-05T07:25:43;5.63;;;2.80;;
49223;SDS011;35050;51.316;5.994;2023-06-05T07:28:10;3.05;;;2.70;;
49223;SDS011;35050;51.316;5.994;2023-06-05T07:30:40;3.92;;;2.75;;
49223;SDS011;35050;51.316;5.994;2023-06-05T07:33:08;3.42;;;2.78;;
49223;SDS011;35050;51.316;5.994;2023-06-05T07:35:34;4.78;;;2.90;;
49223;SDS011;35050;51.316;5.994;2023-06-05T07:38:00;7.22;;;3.50;;
49223;SDS011;35050;51.316;5.994;2023-06-05T07:40:25;6.20;;;3.38;;
49223;SDS011;35050;51.316;5.994;2023-06-05T07:42:51;4.13;;;2.70;;
49223;SDS011;35050;51.316;5.994;2023-06-05T07:45:17;5.10;;;3.03;;
49223;SDS011;35050;51.316;5.994;2023-06-05T07:47:42;2.75;;;2.25;;
49223;SDS011;35050;51.316;5.994;2023-06-05T07:50:08;3.80;;;3.22;;
49223;SDS011;35050;51.316;5.994;2023-06-05T07:52:35;3.60;;;2.55;;
49223;SDS011;35050;51.316;5.994;2023-06-05T07:55:02;4.82;;;3.35;;
49223;SDS011;35050;51.316;5.994;2023-06-05T07:57:29;3.65;;;2.10;;
49223;SDS011;35050;51.316;5.994;2023-06-05T07:59:54;4.15;;;2.78;;
49223;SDS011;35050;51.316;5.994;2023-06-05T08:02:20;5.32;;;3.10;;
49223;SDS011;35050;51.316;5.994;2023-06-05T08:04:46;3.47;;;2.70;;
49223;SDS011;35050;51.316;5.994;2023-06-05T08:07:12;3.58;;;2.17;;
49223;SDS011;35050;51.316;5.994;2023-06-05T08:09:38;5.38;;;2.80;;
49223;SDS011;35050;51.316;5.994;2023-06-05T08:12:04;6.35;;;3.20;;
49223;SDS011;35050;51.316;5.994;2023-06-05T08:14:30;2.55;;;2.33;;
49223;SDS011;35050;51.316;5.994;2023-06-05T08:16:56;3.58;;;2.45;;
49223;SDS011;35050;51.316;5.994;2023-06-05T08:19:22;5.85;;;2.78;;
49223;SDS011;35050;51.316;5.994;2023-06-05T08:21:51;3.47;;;2.30;;
49223;SDS011;35050;51.316;5.994;2023-06-05T08:24:21;5.35;;;3.22;;
49223;SDS011;35050;51.316;5.994;2023-06-05T08:26:47;3.95;;;3.35;;
49223;SDS011;35050;51.316;5.994;2023-06-05T08:29:13;3.20;;;2.50;;
49223;SDS011;35050;51.316;5.994;2023-06-05T08:31:38;3.97;;;2.72;;
49223;SDS011;35050;51.316;5.994;2023-06-05T08:34:05;3.58;;;2.92;;
49223;SDS011;35050;51.316;5.994;2023-06-05T08:36:30;3.60;;;2.70;;
49223;SDS011;35050;51.316;5.994;2023-06-05T08:38:57;4.25;;;3.33;;
49223;SDS011;35050;51.316;5.994;2023-06-05T08:41:23;3.88;;;2.65;;
49223;SDS011;35050;51.316;5.994;2023-06-05T08:43:50;6.38;;;2.72;;
49223;SDS011;35050;51.316;5.994;2023-06-05T08:46:17;2.88;;;2.13;;
49223;SDS011;35050;51.316;5.994;2023-06-05T08:48:46;3.90;;;3.45;;
49223;SDS011;35050;51.316;5.994;2023-06-05T08:51:17;3.53;;;2.42;;
49223;SDS011;35050;51.316;5.994;2023-06-05T08:53:47;2.80;;;2.55;;
49223;SDS011;35050;51.316;5.994;2023-06-05T08:56:21;3.17;;;2.70;;
49223;SDS011;35050;51.316;5.994;2023-06-05T08:58:48;5.25;;;3.10;;
49223;SDS011;35050;51.316;5.994;2023-06-05T09:01:14;4.90;;;2.60;;
49223;SDS011;35050;51.316;5.994;2023-06-05T09:03:41;6.55;;;2.70;;
49223;SDS011;35050;51.316;5.994;2023-06-05T09:06:09;3.88;;;2.53;;
49223;SDS011;35050;51.316;5.994;2023-06-05T09:08:35;3.05;;;2.47;;
49223;SDS011;35050;51.316;5.994;2023-06-05T09:13:47;5.93;;;2.72;;
49223;SDS011;35050;51.316;5.994;2023-06-05T09:16:13;5.28;;;3.78;;
49223;SDS011;35050;51.316;5.994;2023-06-05T09:18:50;6.85;;;2.88;;
49223;SDS011;35050;51.316;5.994;2023-06-05T09:21:24;4.28;;;3.00;;
49223;SDS011;35050;51.316;5.994;2023-06-05T09:24:16;3.38;;;2.47;;
49223;SDS011;35050;51.316;5.994;2023-06-05T09:26:47;2.47;;;2.10;;
49223;SDS011;35050;51.316;5.994;2023-06-05T09:29:23;4.43;;;3.10;;
49223;SDS011;35050;51.316;5.994;2023-06-05T09:31:50;3.67;;;2.75;;
49223;SDS011;35050;51.316;5.994;2023-06-05T09:37:04;3.10;;;2.40;;
49223;SDS011;35050;51.316;5.994;2023-06-05T09:39:35;4.10;;;2.40;;
49223;SDS011;35050;51.316;5.994;2023-06-05T09:42:02;4.18;;;2.72;;
49223;SDS011;35050;51.316;5.994;2023-06-05T09:44:28;4.85;;;2.60;;
49223;SDS011;35050;51.316;5.994;2023-06-05T09:47:02;3.58;;;2.10;;
49223;SDS011;35050;51.316;5.994;2023-06-05T09:52:05;3.08;;;2.38;;
49223;SDS011;35050;51.316;5.994;2023-06-05T09:54:32;3.65;;;2.45;;
49223;SDS011;35050;51.316;5.994;2023-06-05T09:57:01;4.18;;;2.80;;
49223;SDS011;35050;51.316;5.994;2023-06-05T09:59:29;3.63;;;2.53;;
49223;SDS011;35050;51.316;5.994;2023-06-05T10:01:57;4.50;;;2.67;;
49223;SDS011;35050;51.316;5.994;2023-06-05T10:04:27;4.30;;;2.92;;
49223;SDS011;35050;51.316;5.994;2023-06-05T10:06:59;4.10;;;2.40;;
49223;SDS011;35050;51.316;5.994;2023-06-05T10:09:27;3.90;;;2.70;;
49223;SDS011;35050;51.316;5.994;2023-06-05T10:11:55;7.22;;;3.03;;
49223;SDS011;35050;51.316;5.994;2023-06-05T10:14:22;4.30;;;2.33;;
49223;SDS011;35050;51.316;5.994;2023-06-05T10:16:48;2.72;;;2.22;;
49223;SDS011;35050;51.316;5.994;2023-06-05T10:19:18;4.10;;;2.17;;
49223;SDS011;35050;51.316;5.994;2023-06-05T10:21:47;5.10;;;2.30;;
49223;SDS011;35050;51.316;5.994;2023-06-05T10:24:15;5.43;;;2.40;;
49223;SDS011;35050;51.316;5.994;2023-06-05T10:32:03;3.55;;;2.38;;
49223;SDS011;35050;51.316;5.994;2023-06-05T10:34:43;3.25;;;2.28;;
49223;SDS011;35050;51.316;5.994;2023-06-05T10:37:43;4.90;;;1.90;;
49223;SDS011;35050;51.316;5.994;2023-06-05T10:40:21;5.17;;;2.80;;
49223;SDS011;35050;51.316;5.994;2023-06-05T10:42:48;4.00;;;2.42;;
49223;SDS011;35050;51.316;5.994;2023-06-05T10:45:28;4.00;;;2.38;;
49223;SDS011;35050;51.316;5.994;2023-06-05T10:47:57;5.13;;;2.10;;
49223;SDS011;35050;51.316;5.994;2023-06-05T10:50:23;2.70;;;1.90;;
49223;SDS011;35050;51.316;5.994;2023-06-05T10:52:51;2.90;;;1.92;;
49223;SDS011;35050;51.316;5.994;2023-06-05T10:55:19;2.05;;;1.80;;
49223;SDS011;35050;51.316;5.994;2023-06-05T11:00:27;2.63;;;1.67;;
49223;SDS011;35050;51.316;5.994;2023-06-05T11:02:56;2.65;;;1.90;;
49223;SDS011;35050;51.316;5.994;2023-06-05T11:05:22;2.90;;;1.83;;
49223;SDS011;35050;51.316;5.994;2023-06-05T11:08:12;3.10;;;2.50;;
49223;SDS011;35050;51.316;5.994;2023-06-05T11:11:01;3.53;;;2.35;;
49223;SDS011;35050;51.316;5.994;2023-06-05T11:13:50;3.25;;;1.88;;
49223;SDS011;35050;51.316;5.994;2023-06-05T11:16:28;3.20;;;1.95;;
49223;SDS011;35050;51.316;5.994;2023-06-05T11:22:07;3.15;;;1.80;;
49223;SDS011;35050;51.316;5.994;2023-06-05T11:24:35;3.60;;;1.73;;
49223;SDS011;35050;51.316;5.994;2023-06-05T11:27:02;2.38;;;1.60;;
49223;SDS011;35050;51.316;5.994;2023-06-05T11:29:28;2.10;;;1.40;;
49223;SDS011;35050;51.316;5.994;2023-06-05T11:31:54;3.38;;;2.13;;
49223;SDS011;35050;51.316;5.994;2023-06-05T11:34:20;3.80;;;1.75;;
49223;SDS011;35050;51.316;5.994;2023-06-05T11:36:46;3.45;;;1.83;;
49223;SDS011;35050;51.316;5.994;2023-06-05T11:39:12;3.00;;;1.80;;
49223;SDS011;35050;51.316;5.994;2023-06-05T11:41:48;4.72;;;1.67;;
49223;SDS011;35050;51.316;5.994;2023-06-05T11:44:31;5.20;;;2.20;;
49223;SDS011;35050;51.316;5.994;2023-06-05T11:46:58;2.65;;;1.45;;
49223;SDS011;35050;51.316;5.994;2023-06-05T11:49:25;3.45;;;1.65;;
49223;SDS011;35050;51.316;5.994;2023-06-05T11:51:55;1.63;;;1.30;;
49223;SDS011;35050;51.316;5.994;2023-06-05T11:54:25;1.50;;;1.40;;
49223;SDS011;35050;51.316;5.994;2023-06-05T11:57:02;2.28;;;1.33;;
49223;SDS011;35050;51.316;5.994;2023-06-05T11:59:36;4.00;;;1.40;;
49223;SDS011;35050;51.316;5.994;2023-06-05T12:02:02;2.30;;;1.40;;
49223;SDS011;35050;51.316;5.994;2023-06-05T12:04:30;2.72;;;1.60;;
49223;SDS011;35050;51.316;5.994;2023-06-05T12:06:56;3.17;;;1.50;;
49223;SDS011;35050;51.316;5.994;2023-06-05T12:09:24;2.10;;;1.80;;
49223;SDS011;35050;51.316;5.994;2023-06-05T12:11:50;2.58;;;1.40;;
49223;SDS011;35050;51.316;5.994;2023-06-05T12:14:29;2.13;;;1.30;;
49223;SDS011;35050;51.316;5.994;2023-06-05T12:16:56;1.55;;;1.20;;
49223;SDS011;35050;51.316;5.994;2023-06-05T12:19:21;1.83;;;1.40;;
49223;SDS011;35050;51.316;5.994;2023-06-05T12:21:48;1.95;;;1.33;;
49223;SDS011;35050;51.316;5.994;2023-06-05T12:24:25;4.47;;;1.70;;
49223;SDS011;35050;51.316;5.994;2023-06-05T12:26:52;3.20;;;1.70;;
49223;SDS011;35050;51.316;5.994;2023-06-05T12:29:19;1.42;;;1.10;;
49223;SDS011;35050;51.316;5.994;2023-06-05T12:31:46;1.52;;;1.38;;
49223;SDS011;35050;51.316;5.994;2023-06-05T12:34:12;2.22;;;1.60;;
49223;SDS011;35050;51.316;5.994;2023-06-05T12:36:40;1.50;;;1.38;;
49223;SDS011;35050;51.316;5.994;2023-06-05T12:39:10;3.80;;;1.50;;
49223;SDS011;35050;51.316;5.994;2023-06-05T12:41:37;4.80;;;1.50;;
49223;SDS011;35050;51.316;5.994;2023-06-05T12:44:04;3.10;;;1.40;;
49223;SDS011;35050;51.316;5.994;2023-06-05T12:46:31;2.00;;;1.25;;
49223;SDS011;35050;51.316;5.994;2023-06-05T12:49:00;1.38;;;1.23;;
49223;SDS011;35050;51.316;5.994;2023-06-05T12:51:30;1.73;;;1.35;;
49223;SDS011;35050;51.316;5.994;2023-06-05T12:53:56;2.90;;;1.50;;
49223;SDS011;35050;51.316;5.994;2023-06-05T12:56:23;1.27;;;1.17;;
49223;SDS011;35050;51.316;5.994;2023-06-05T12:58:53;2.05;;;1.40;;
49223;SDS011;35050;51.316;5.994;2023-06-05T13:01:20;2.30;;;1.40;;
49223;SDS011;35050;51.316;5.994;2023-06-05T13:03:47;2.10;;;1.33;;
49223;SDS011;35050;51.316;5.994;2023-06-05T13:06:13;4.13;;;1.30;;
49223;SDS011;35050;51.316;5.994;2023-06-05T13:08:38;2.92;;;1.38;;
49223;SDS011;35050;51.316;5.994;2023-06-05T13:11:04;1.92;;;1.42;;
49223;SDS011;35050;51.316;5.994;2023-06-05T13:13:30;1.88;;;1.33;;
49223;SDS011;35050;51.316;5.994;2023-06-05T13:15:57;1.42;;;1.25;;
49223;SDS011;35050;51.316;5.994;2023-06-05T13:18:24;4.85;;;1.55;;
49223;SDS011;35050;51.316;5.994;2023-06-05T13:20:49;2.65;;;1.35;;
49223;SDS011;35050;51.316;5.994;2023-06-05T13:23:15;2.75;;;1.55;;
49223;SDS011;35050;51.316;5.994;2023-06-05T13:25:41;1.88;;;1.17;;
49223;SDS011;35050;51.316;5.994;2023-06-05T13:28:06;2.78;;;1.48;;
49223;SDS011;35050;51.316;5.994;2023-06-05T13:30:32;2.72;;;1.58;;
49223;SDS011;35050;51.316;5.994;2023-06-05T13:32:58;1.23;;;1.13;;
49223;SDS011;35050;51.316;5.994;2023-06-05T13:35:24;2.58;;;1.30;;
49223;SDS011;35050;51.316;5.994;2023-06-05T13:37:50;1.92;;;1.30;;
49223;SDS011;35050;51.316;5.994;2023-06-05T13:40:17;3.47;;;1.40;;
49223;SDS011;35050;51.316;5.994;2023-06-05T13:42:42;2.33;;;1.20;;
49223;SDS011;35050;51.316;5.994;2023-06-05T13:45:08;1.50;;;1.23;;
49223;SDS011;35050;51.316;5.994;2023-06-05T13:47:36;2.17;;;1.20;;
49223;SDS011;35050;51.316;5.994;2023-06-05T13:50:03;1.30;;;1.20;;
49223;SDS011;35050;51.316;5.994;2023-06-05T13:52:29;1.30;;;1.20;;
49223;SDS011;35050;51.316;5.994;2023-06-05T13:54:54;1.63;;;1.17;;
49223;SDS011;35050;51.316;5.994;2023-06-05T13:57:20;2.42;;;1.20;;
49223;SDS011;35050;51.316;5.994;2023-06-05T13:59:46;2.00;;;1.50;;
49223;SDS011;35050;51.316;5.994;2023-06-05T14:02:12;3.00;;;1.30;;
49223;SDS011;35050;51.316;5.994;2023-06-05T14:04:37;1.55;;;1.42;;
49223;SDS011;35050;51.316;5.994;2023-06-05T14:07:03;3.75;;;1.98;;
49223;SDS011;35050;51.316;5.994;2023-06-05T14:09:29;3.65;;;1.75;;
49223;SDS011;35050;51.316;5.994;2023-06-05T14:11:55;2.97;;;1.90;;
49223;SDS011;35050;51.316;5.994;2023-06-05T14:14:22;3.08;;;1.50;;
49223;SDS011;35050;51.316;5.994;2023-06-05T14:16:49;4.40;;;1.20;;
49223;SDS011;35050;51.316;5.994;2023-06-05T14:19:15;1.40;;;1.30;;
49223;SDS011;35050;51.316;5.994;2023-06-05T14:21:42;1.95;;;1.33;;
49223;SDS011;35050;51.316;5.994;2023-06-05T14:24:08;2.05;;;1.30;;
49223;SDS011;35050;51.316;5.994;2023-06-05T14:26:33;1.33;;;1.23;;
49223;SDS011;35050;51.316;5.994;2023-06-05T14:28:59;1.70;;;1.33;;
49223;SDS011;35050;51.316;5.994;2023-06-05T14:31:25;1.70;;;1.40;;
49223;SDS011;35050;51.316;5.994;2023-06-05T14:33:53;1.20;;;1.08;;
49223;SDS011;35050;51.316;5.994;2023-06-05T14:36:18;2.53;;;1.30;;
49223;SDS011;35050;51.316;5.994;2023-06-05T14:38:44;1.77;;;1.38;;
49223;SDS011;35050;51.316;5.994;2023-06-05T14:41:10;2.67;;;1.40;;
49223;SDS011;35050;51.316;5.994;2023-06-05T14:43:36;1.38;;;1.25;;
49223;SDS011;35050;51.316;5.994;2023-06-05T14:46:02;3.00;;;1.35;;
49223;SDS011;35050;51.316;5.994;2023-06-05T14:48:28;1.63;;;1.17;;
49223;SDS011;35050;51.316;5.994;2023-06-05T14:50:55;1.73;;;1.50;;
49223;SDS011;35050;51.316;5.994;2023-06-05T14:53:21;1.85;;;1.50;;
49223;SDS011;35050;51.316;5.994;2023-06-05T14:55:46;1.40;;;1.30;;
49223;SDS011;35050;51.316;5.994;2023-06-05T14:58:12;1.30;;;1.20;;
49223;SDS011;35050;51.316;5.994;2023-06-05T15:00:38;2.50;;;1.45;;
49223;SDS011;35050;51.316;5.994;2023-06-05T15:03:04;3.42;;;1.60;;
49223;SDS011;35050;51.316;5.994;2023-06-05T15:05:30;2.15;;;1.85;;
49223;SDS011;35050;51.316;5.994;2023-06-05T15:07:56;3.35;;;1.65;;
49223;SDS011;35050;51.316;5.994;2023-06-05T15:10:23;1.40;;;1.30;;
49223;SDS011;35050;51.316;5.994;2023-06-05T15:12:49;1.52;;;1.30;;
49223;SDS011;35050;51.316;5.994;2023-06-05T15:15:21;1.97;;;1.67;;